createdAt,value
2023-02-23T00:02:14.436Z,-7.26
2023-02-23T00:07:20.390Z,-7.18
2023-02-23T00:12:24.357Z,-7.20
2023-02-23T00:17:27.097Z,-7.18
2023-02-23T00:22:29.871Z,-7.16
2023-02-23T00:27:32.740Z,-7.19
2023-02-23T00:32:35.626Z,-7.21
2023-02-23T00:37:38.356Z,-7.56
2023-02-23T00:42:41.261Z,-7.26
2023-02-23T00:47:44.998Z,-7.26
2023-02-23T00:52:49.286Z,-7.29
2023-02-23T00:57:51.894Z,-7.40
2023-02-23T01:02:54.612Z,-7.43
2023-02-23T01:07:57.282Z,-7.49
2023-02-23T01:13:00.036Z,-7.51
2023-02-23T01:18:02.897Z,-7.54
2023-02-23T01:23:07.793Z,-7.58
2023-02-23T01:28:11.709Z,-7.76
2023-02-23T01:33:14.423Z,-7.72
2023-02-23T01:38:17.098Z,-7.66
2023-02-23T01:43:26.356Z,-7.76
2023-02-23T01:48:36.917Z,-7.81
2023-02-23T01:53:43.660Z,-7.83
2023-02-23T01:58:48.168Z,-7.78
2023-02-23T02:03:57.636Z,-7.65
2023-02-23T02:09:06.984Z,-7.50
2023-02-23T02:14:13.569Z,-7.35
2023-02-23T02:19:41.824Z,-7.20
2023-02-23T02:25:02.814Z,-7.12
2023-02-23T02:30:16.140Z,-7.02
2023-02-23T02:35:40.242Z,-6.89
2023-02-23T02:40:53.675Z,-6.82
2023-02-23T02:46:02.701Z,-6.67
2023-02-23T02:51:32.180Z,-6.49
2023-02-23T02:56:44.746Z,-6.26
2023-02-23T03:02:05.817Z,-6.09
2023-02-23T03:07:51.082Z,-5.91
2023-02-23T03:13:27.588Z,-5.76
2023-02-23T03:19:16.214Z,-5.62
2023-02-23T03:24:48.933Z,-5.53
2023-02-23T03:30:23.486Z,-5.34
2023-02-23T03:35:49.042Z,-5.06
2023-02-23T03:41:11.140Z,-4.79
2023-02-23T03:46:33.847Z,-4.67
2023-02-23T03:51:56.948Z,-4.72
2023-02-23T03:57:19.091Z,-4.65
2023-02-23T04:02:41.374Z,-4.49
2023-02-23T04:08:05.024Z,-4.23
2023-02-23T04:13:15.303Z,-4.09
2023-02-23T04:18:24.153Z,-4.08
2023-02-23T04:23:27.965Z,-3.62
2023-02-23T04:28:30.699Z,-3.37
2023-02-23T04:33:33.467Z,-3.37
2023-02-23T04:38:36.277Z,-3.31
2023-02-23T04:43:39.057Z,-3.33
2023-02-23T04:48:41.738Z,-3.21
2023-02-23T04:53:44.517Z,-3.10
2023-02-23T04:58:47.204Z,-2.76
2023-02-23T05:03:50.547Z,-2.55
2023-02-23T05:08:53.245Z,-2.23
2023-02-23T05:13:56.568Z,-1.93
2023-02-23T05:18:59.559Z,-1.66
2023-02-23T05:24:02.629Z,-1.45
2023-02-23T05:29:06.945Z,-1.27
2023-02-23T05:34:10.633Z,-1.19
2023-02-23T05:39:13.479Z,-1.21
2023-02-23T05:44:16.464Z,-0.67
2023-02-23T05:49:19.378Z,-0.43
2023-02-23T05:54:22.583Z,-0.11
2023-02-23T05:59:26.186Z,-0.04
2023-02-23T06:04:28.791Z,0.31
2023-02-23T06:09:31.498Z,0.68
2023-02-23T06:14:35.211Z,0.98
2023-02-23T06:19:37.958Z,1.26
2023-02-23T06:24:40.692Z,1.26
2023-02-23T06:29:43.633Z,1.04
2023-02-23T06:34:46.534Z,0.96
2023-02-23T06:39:49.836Z,0.93
2023-02-23T06:44:52.537Z,0.89
2023-02-23T06:49:55.281Z,0.85
2023-02-23T06:54:58.014Z,0.80
2023-02-23T07:00:02.657Z,0.80
2023-02-23T07:05:10.456Z,0.87
2023-02-23T07:10:13.320Z,0.95
2023-02-23T07:15:18.167Z,0.95
2023-02-23T07:20:20.858Z,0.48
2023-02-23T07:25:23.898Z,1.14
2023-02-23T07:30:26.891Z,1.10
2023-02-23T07:35:29.599Z,1.19
2023-02-23T07:40:32.616Z,1.34
2023-02-23T07:45:35.668Z,1.41
2023-02-23T07:50:40.760Z,1.43
2023-02-23T07:55:43.690Z,1.30
2023-02-23T08:00:46.388Z,1.41
2023-02-23T08:05:49.073Z,1.43
2023-02-23T08:10:51.855Z,1.77
2023-02-23T08:15:54.728Z,1.93
2023-02-23T08:21:01.998Z,2.09
2023-02-23T08:26:04.859Z,2.28
2023-02-23T08:31:10.563Z,2.63
2023-02-23T08:36:13.582Z,3.06
2023-02-23T08:41:17.245Z,3.16
2023-02-23T08:46:20.960Z,3.19
2023-02-23T08:51:23.920Z,3.04
2023-02-23T08:56:27.359Z,2.85
2023-02-23T09:01:30.123Z,2.70
2023-02-23T09:06:36.145Z,2.72
2023-02-23T09:11:38.836Z,2.79
2023-02-23T09:16:41.569Z,2.77
2023-02-23T09:21:44.866Z,2.56
2023-02-23T09:26:47.865Z,2.38
2023-02-23T09:31:53.408Z,2.33
2023-02-23T09:36:56.115Z,2.21
2023-02-23T09:42:16.816Z,2.14
2023-02-23T09:47:24.182Z,1.90
2023-02-23T09:52:30.884Z,1.87
2023-02-23T09:57:53.791Z,1.90
2023-02-23T10:03:14.686Z,1.84
2023-02-23T10:08:23.138Z,1.67
2023-02-23T10:13:49.068Z,1.61
2023-02-23T10:19:00.961Z,1.56
2023-02-23T10:24:09.855Z,1.61
2023-02-23T10:29:29.893Z,1.57
2023-02-23T10:34:32.712Z,1.47
2023-02-23T10:39:35.694Z,1.39
2023-02-23T10:44:38.388Z,1.28
2023-02-23T10:49:50.312Z,1.16
2023-02-23T10:54:53.506Z,1.12
2023-02-23T11:00:04.379Z,0.98
2023-02-23T11:05:08.461Z,0.72
2023-02-23T11:10:28.351Z,0.38
2023-02-23T11:15:49.898Z,0.13
2023-02-23T11:20:53.804Z,-0.26
2023-02-23T11:26:02.361Z,-0.43
2023-02-23T11:31:14.887Z,-0.50
2023-02-23T11:36:28.362Z,-0.50
2023-02-23T11:41:33.204Z,-0.51
2023-02-23T11:46:39.521Z,-0.51
2023-02-23T11:51:49.669Z,-0.53
2023-02-23T11:56:54.446Z,-0.57
2023-02-23T12:02:23.298Z,-0.64
2023-02-23T12:07:43.488Z,-0.60
2023-02-23T12:13:24.697Z,-0.54
2023-02-23T12:18:55.299Z,-0.57
2023-02-23T12:24:16.425Z,-0.60
2023-02-23T12:29:42.952Z,-0.58
2023-02-23T12:35:02.613Z,-0.44
2023-02-23T12:40:23.591Z,-0.47
2023-02-23T12:45:37.428Z,-0.48
2023-02-23T12:50:51.812Z,-0.45
2023-02-23T12:56:12.359Z,-0.42
2023-02-23T13:01:24.946Z,-0.42
2023-02-23T13:06:39.496Z,-0.38
2023-02-23T13:12:00.222Z,-0.44
2023-02-23T13:17:14.891Z,-0.40
2023-02-23T13:22:48.594Z,-0.44
2023-02-23T13:27:58.434Z,-0.43
2023-02-23T13:33:17.948Z,-0.54
2023-02-23T13:38:26.680Z,-0.39
2023-02-23T13:43:35.943Z,-0.44
2023-02-23T13:48:56.235Z,-0.40
2023-02-23T13:54:04.574Z,-0.55
2023-02-23T13:59:10.111Z,-0.45
2023-02-23T14:04:16.751Z,-0.43
2023-02-23T14:09:24.150Z,-0.43
2023-02-23T14:14:33.414Z,-0.44
2023-02-23T14:19:38.393Z,-0.44
2023-02-23T14:24:44.213Z,-0.47
2023-02-23T14:30:05.634Z,-0.43
2023-02-23T14:35:48.087Z,-0.37
2023-02-23T14:40:52.265Z,-0.34
2023-02-23T14:45:55.686Z,-0.33
2023-02-23T14:51:37.403Z,-0.32
2023-02-23T14:56:47.463Z,-0.58
2023-02-23T15:01:52.002Z,-0.33
2023-02-23T15:06:59.466Z,-0.44
2023-02-23T15:12:11.998Z,-0.38
2023-02-23T15:17:17.441Z,-0.40
2023-02-23T15:22:29.208Z,-0.56
2023-02-23T15:27:43.177Z,-0.44
2023-02-23T15:32:46.426Z,-0.40
2023-02-23T15:37:56.577Z,-0.36
2023-02-23T15:43:10.024Z,-0.29
2023-02-23T15:48:21.251Z,-0.25
2023-02-23T15:53:26.797Z,-0.22
2023-02-23T15:58:32.359Z,-0.41
2023-02-23T16:03:37.884Z,-0.37
2023-02-23T16:08:56.634Z,-0.26
2023-02-23T16:13:59.401Z,-0.32
2023-02-23T16:19:02.281Z,-0.32
2023-02-23T16:24:17.606Z,-0.29
2023-02-23T16:29:44.829Z,-0.23
2023-02-23T16:34:58.280Z,-0.17
2023-02-23T16:40:01.816Z,-0.17
2023-02-23T16:45:06.150Z,-0.07
2023-02-23T16:50:29.812Z,-0.03
2023-02-23T16:55:41.892Z,-0.17
2023-02-23T17:00:51.437Z,-0.18
2023-02-23T17:05:54.664Z,-0.57
2023-02-23T17:10:57.807Z,-0.96
2023-02-23T17:16:03.857Z,-1.20
2023-02-23T17:21:10.114Z,-1.41
2023-02-23T17:26:13.117Z,-1.54
2023-02-23T17:31:17.026Z,-1.66
2023-02-23T17:36:20.012Z,-1.86
2023-02-23T17:41:23.136Z,-1.89
2023-02-23T17:46:26.352Z,-2.11
2023-02-23T17:51:29.121Z,-2.29
2023-02-23T17:56:32.094Z,-2.07
2023-02-23T18:01:35.107Z,-2.08
2023-02-23T18:06:38.023Z,-2.12
2023-02-23T18:11:40.782Z,-2.22
2023-02-23T18:16:43.697Z,-2.18
2023-02-23T18:21:46.624Z,-2.19
2023-02-23T18:26:49.406Z,-2.16
2023-02-23T18:31:52.803Z,-2.15
2023-02-23T18:37:02.719Z,-2.29
2023-02-23T18:42:05.845Z,-2.26
2023-02-23T18:47:08.761Z,-2.33
2023-02-23T18:52:11.497Z,-2.33
2023-02-23T18:57:14.216Z,-2.48
2023-02-23T19:02:19.169Z,-2.42
2023-02-23T19:07:22.092Z,-2.37
2023-02-23T19:12:24.865Z,-2.43
2023-02-23T19:17:28.943Z,-2.36
2023-02-23T19:22:34.508Z,-2.36
2023-02-23T19:27:37.522Z,-2.36
2023-02-23T19:32:40.529Z,-2.30
2023-02-23T19:37:52.352Z,-2.31
2023-02-23T19:42:55.199Z,-2.48
2023-02-23T19:47:57.943Z,-2.35
2023-02-23T19:53:00.685Z,-1.83
2023-02-23T19:58:03.451Z,-1.33
2023-02-23T20:03:07.293Z,-1.07
2023-02-23T20:08:10.381Z,-0.85
2023-02-23T20:13:13.091Z,-0.78
2023-02-23T20:18:15.854Z,-0.53
2023-02-23T20:23:18.875Z,-0.42
2023-02-23T20:28:21.766Z,-0.43
2023-02-23T20:33:24.587Z,-0.34
2023-02-23T20:38:27.385Z,-0.23
2023-02-23T20:43:31.206Z,-0.16
2023-02-23T20:48:35.209Z,-0.01
2023-02-23T20:53:37.879Z,0.06
2023-02-23T20:58:40.634Z,0.09
2023-02-23T21:03:43.597Z,0.10
2023-02-23T21:08:49.216Z,0.13
2023-02-23T21:13:52.684Z,-0.10
2023-02-23T21:19:04.423Z,-0.49
2023-02-23T21:24:08.027Z,-0.73
2023-02-23T21:29:15.238Z,-0.69
2023-02-23T21:34:20.634Z,-0.71
2023-02-23T21:39:26.841Z,-0.84
2023-02-23T21:44:29.642Z,-0.94
2023-02-23T21:49:32.376Z,-0.95
2023-02-23T21:54:37.328Z,-0.92
2023-02-23T21:59:39.988Z,-0.89
2023-02-23T22:04:42.653Z,-0.83
2023-02-23T22:09:45.392Z,-0.74
2023-02-23T22:14:48.546Z,-0.51
2023-02-23T22:19:54.181Z,-0.32
2023-02-23T22:24:56.950Z,-0.14
2023-02-23T22:30:01.759Z,0.02
2023-02-23T22:35:07.540Z,0.21
2023-02-23T22:40:17.189Z,0.52
2023-02-23T22:45:20.685Z,0.67
2023-02-23T22:50:23.372Z,0.99
2023-02-23T22:55:29.677Z,1.17
2023-02-23T23:00:32.913Z,1.07
2023-02-23T23:05:35.947Z,1.33
2023-02-23T23:10:38.651Z,1.46
2023-02-23T23:15:43.042Z,1.56
2023-02-23T23:20:45.700Z,1.54
2023-02-23T23:25:49.245Z,1.70
2023-02-23T23:30:52.575Z,1.73
2023-02-23T23:35:55.385Z,1.86
2023-02-23T23:41:10.314Z,1.80
2023-02-23T23:46:24.907Z,1.80
2023-02-23T23:51:30.887Z,1.98
2023-02-23T23:56:36.104Z,2.02
